Time;durP1;ratioP1;P1;durP2;ratioP2;P2;SDS_P1;SDS_P2;PMS_P1;PMS_P2;Temp;Humidity;BMP_temperature;BMP_pressure;BME280_temperature;BME280_humidity;BME280_pressure;Samples;Min_cycle;Max_cycle;Signal;HPM_P1;HPM_P2
2022/06/08 00:01:00;701883.00;2.34;1210.50;157911.00;0.53;273.44;;;;;19.20;1.00;;;;;;2284630;60;2006;-85
2022/06/08 00:03:30;339719.00;1.13;586.19;77977.00;0.26;135.54;;;;;19.30;1.00;;;;;;2284800;60;1128;-84
2022/06/08 00:05:57;805626.00;2.69;1390.94;94429.00;0.31;163.95;;;;;19.50;1.00;;;;;;2284720;60;1473;-87
2022/06/08 00:08:24;685214.00;2.28;1181.61;90408.00;0.30;157.01;;;;;19.60;1.00;;;;;;2284766;60;1236;-86
2022/06/08 00:10:51;117581696.00;391.94;65849056.00;77742.00;0.26;135.14;;;;;19.60;1.00;;;;;;2284316;60;933;-86
2022/06/08 00:13:18;724532.00;2.42;1249.81;77083.00;0.26;134.00;;;;;19.50;1.00;;;;;;2284721;60;1086;-85
2022/06/08 00:15:47;592151.00;1.97;1020.67;71545.00;0.24;124.43;;;;;19.50;1.00;;;;;;2284760;60;1395;-88
2022/06/08 00:18:14;544674.00;1.82;938.78;94505.00;0.32;164.09;;;;;19.40;1.00;;;;;;2284673;60;1063;-86
2022/06/08 00:20:41;359533.00;1.20;620.25;74737.00;0.25;129.95;;;;;19.10;1.00;;;;;;2284661;60;1713;-85
2022/06/08 00:23:08;358079.00;1.19;617.75;74962.00;0.25;130.33;;;;;18.90;1.00;;;;;;2284725;60;2088;-85
2022/06/08 00:25:35;268725.00;0.90;464.15;73291.00;0.24;127.45;;;;;18.90;1.00;;;;;;2284796;60;1369;-85
2022/06/08 00:28:02;548086.00;1.83;944.66;152724.00;0.51;264.50;;;;;19.10;1.00;;;;;;2284616;60;1558;-87
2022/06/08 00:30:30;410286.00;1.37;707.49;61403.00;0.20;106.90;;;;;19.30;1.00;;;;;;2284605;60;1047;-87
2022/06/08 00:32:58;197712.00;0.66;341.99;73319.00;0.24;127.50;;;;;19.30;1.00;;;;;;2284775;60;1029;-87
2022/06/08 00:35:26;515592.00;1.72;888.67;95915.00;0.32;166.52;;;;;19.30;1.00;;;;;;2284671;60;1366;-85
2022/06/08 00:37:53;517714.00;1.73;892.33;95911.00;0.32;166.51;;;;;19.00;1.00;;;;;;2284756;60;1123;-85
2022/06/08 00:40:24;267143.00;0.89;461.43;78769.00;0.26;136.91;;;;;18.80;1.40;;;;;;2284709;60;1127;-87
2022/06/08 00:42:52;411230.00;1.37;709.11;90532.00;0.30;157.23;;;;;18.80;1.40;;;;;;2284475;60;1913;-84
2022/06/08 00:45:23;273102.00;0.91;471.68;81792.00;0.27;142.13;;;;;18.90;1.20;;;;;;2284664;60;1329;-85
2022/06/08 00:47:55;203239.00;0.68;351.50;69951.00;0.23;121.68;;;;;18.90;1.20;;;;;;2284770;60;1048;-85
2022/06/08 00:50:30;207772.00;0.69;359.30;85469.00;0.28;148.48;;;;;19.00;1.00;;;;;;2284643;60;1019;-85
2022/06/08 00:52:58;196182.00;0.65;339.35;77015.00;0.26;133.88;;;;;18.90;1.00;;;;;;2284684;60;1154;-85
2022/06/08 00:55:30;287231.00;0.96;495.97;72600.00;0.24;126.25;;;;;18.60;1.90;;;;;;2284476;60;1678;-85
2022/06/08 00:58:02;229431.00;0.76;396.57;73070.00;0.24;127.07;;;;;18.70;2.20;;;;;;2284622;60;1469;-85
2022/06/08 01:00:32;252438.00;0.84;436.14;75633.00;0.25;131.49;;;;;18.50;1.90;;;;;;2284628;60;1146;-86
2022/06/08 01:02:59;208910.00;0.70;361.26;73948.00;0.25;128.58;;;;;18.80;1.00;;;;;;2284602;60;2001;-87
2022/06/08 01:05:31;359790.00;1.20;620.69;75923.00;0.25;131.99;;;;;18.90;1.00;;;;;;2284505;60;1355;-84
2022/06/08 01:08:02;329221.00;1.10;568.15;76548.00;0.26;133.07;;;;;18.80;1.00;;;;;;2284629;60;895;-85
2022/06/08 01:10:35;358431.00;1.19;618.35;93374.00;0.31;162.13;;;;;18.80;1.00;;;;;;2284614;60;956;-85
2022/06/08 01:13:04;731779.00;2.44;1262.39;127137.00;0.42;220.39;;;;;19.00;1.00;;;;;;2284563;60;1566;-84
2022/06/08 01:15:36;461584.00;1.54;795.71;73696.00;0.25;128.15;;;;;19.10;1.00;;;;;;2284600;60;1281;-86
2022/06/08 01:18:03;902322.00;3.01;1560.20;143300.00;0.48;248.26;;;;;19.10;1.00;;;;;;2284474;60;1034;-86
2022/06/08 01:20:31;711695.00;2.37;1227.52;108586.00;0.36;188.39;;;;;19.00;1.00;;;;;;2284595;60;1019;-86
2022/06/08 01:23:00;234713.00;0.78;405.66;67513.00;0.23;117.46;;;;;19.00;1.00;;;;;;2284516;60;1927;-86
2022/06/08 01:25:35;175912.00;0.59;304.45;33695.00;0.11;58.98;;;;;19.00;1.00;;;;;;2284514;60;1351;-84
2022/06/08 01:28:18;100216.00;0.33;173.94;0.00;0.00;0.62;;;;;19.10;1.00;;;;;;2284644;60;1093;-87
2022/06/08 01:30:54;347553.00;1.16;599.66;108810.00;0.36;188.78;;;;;19.10;1.00;;;;;;2284470;60;1009;-85
2022/06/08 01:33:45;170664.00;0.57;295.41;78015.00;0.26;135.61;;;;;19.00;1.00;;;;;;2284575;60;1121;-86
2022/06/08 01:36:34;205685.00;0.69;355.71;77483.00;0.26;134.69;;;;;19.00;1.00;;;;;;2284480;60;1494;-85
2022/06/08 01:39:07;278882.00;0.93;481.62;50586.00;0.17;88.20;;;;;19.00;1.00;;;;;;2284419;60;1047;-86
2022/06/08 01:41:52;413041.00;1.38;712.23;77779.00;0.26;135.20;;;;;19.10;1.00;;;;;;2284450;60;1919;-86
2022/06/08 01:44:41;364345.00;1.21;628.52;72611.00;0.24;126.27;;;;;18.90;1.00;;;;;;2284485;60;1046;-85
2022/06/08 01:47:16;557649.00;1.86;961.15;74373.00;0.25;129.32;;;;;19.00;1.00;;;;;;2284523;60;1480;-86
2022/06/08 01:49:55;167442.00;0.56;289.86;74384.00;0.25;129.34;;;;;19.00;1.00;;;;;;2284518;60;1102;-84
2022/06/08 01:52:36;36793.00;0.12;64.34;0.00;0.00;0.62;;;;;19.10;1.00;;;;;;2284328;60;958;-84
2022/06/08 01:55:10;375290.00;1.25;647.33;147504.00;0.49;255.51;;;;;19.20;1.00;;;;;;2284369;60;1471;-83
2022/06/08 01:57:52;227593.00;0.76;393.41;39246.00;0.13;68.58;;;;;19.10;1.00;;;;;;2284513;60;1195;-85
2022/06/08 02:00:24;179832.00;0.60;311.20;72631.00;0.24;126.31;;;;;19.20;1.00;;;;;;2284425;60;1163;-85
2022/06/08 02:03:00;195326.00;0.65;337.88;73334.00;0.24;127.52;;;;;19.40;1.00;;;;;;2284452;60;1931;-86
2022/06/08 02:05:35;186455.00;0.62;322.60;75614.00;0.25;131.46;;;;;19.20;1.00;;;;;;2284371;60;1428;-85
2022/06/08 02:08:11;212325.00;0.71;367.14;76466.00;0.25;132.93;;;;;19.40;1.00;;;;;;2284443;60;1042;-86
2022/06/08 02:10:47;273595.00;0.91;472.53;96235.00;0.32;167.07;;;;;19.30;1.00;;;;;;2284461;60;1083;-84
2022/06/08 02:13:19;281534.00;0.94;486.17;100116.00;0.33;173.77;;;;;19.20;1.00;;;;;;2284483;60;1098;-86
2022/06/08 02:15:49;264599.00;0.88;457.06;83780.00;0.28;145.57;;;;;19.10;1.00;;;;;;2284405;60;1397;-85
2022/06/08 02:18:23;282793.00;0.94;488.34;85319.00;0.28;148.22;;;;;19.00;1.00;;;;;;2284304;60;2203;-85
2022/06/08 02:20:55;243177.00;0.81;420.22;76811.00;0.26;133.53;;;;;18.80;1.00;;;;;;2284399;60;1141;-84
2022/06/08 02:23:27;308275.00;1.03;532.14;81569.00;0.27;141.75;;;;;18.80;1.00;;;;;;2284466;60;1984;-86
2022/06/08 02:26:01;169580.00;0.57;293.54;73946.00;0.25;128.58;;;;;18.70;1.00;;;;;;2284431;60;1487;-84
2022/06/08 02:28:33;305121.00;1.02;526.72;72817.00;0.24;126.63;;;;;18.80;1.00;;;;;;2284392;60;1122;-86
2022/06/08 02:31:06;239878.00;0.80;414.54;77822.00;0.26;135.27;;;;;18.80;1.00;;;;;;2284261;60;1273;-85
2022/06/08 02:36:28;496426.00;1.65;855.67;48725.00;0.16;84.98;;;;;18.40;1.00;;;;;;2284336;60;1349;-85
2022/06/08 02:39:01;670112.00;2.23;1155.45;91161.00;0.30;158.31;;;;;18.30;1.00;;;;;;2284379;60;1125;-84
2022/06/08 02:41:32;501177.00;1.67;863.85;84395.00;0.28;146.63;;;;;18.20;1.00;;;;;;2284253;60;1012;-85
2022/06/08 02:44:04;591100.00;1.97;1018.86;127332.00;0.42;220.73;;;;;18.10;1.00;;;;;;2284274;60;1931;-85
2022/06/08 02:46:42;626587.00;2.09;1080.15;82849.00;0.28;143.96;;;;;17.70;1.00;;;;;;2284335;60;1473;-86
2022/06/08 02:49:10;322903.00;1.08;557.29;0.00;0.00;0.62;;;;;17.70;1.00;;;;;;2284087;60;1125;-85
2022/06/08 02:51:41;888175.00;2.96;1535.36;112864.00;0.38;195.77;;;;;18.00;1.00;;;;;;2284361;60;1102;-85
2022/06/08 02:54:14;715937.00;2.39;1234.89;38933.00;0.13;68.04;;;;;18.20;1.00;;;;;;2284615;60;1048;-85
2022/06/08 02:56:55;623276.00;2.08;1074.43;114087.00;0.38;197.88;;;;;18.30;1.00;;;;;;2285033;60;1459;-85
2022/06/08 02:59:31;514014.00;1.71;885.95;0.00;0.00;0.62;;;;;18.50;1.00;;;;;;2285110;60;1059;-85
2022/06/08 03:02:06;998905.00;3.33;1730.53;19052.00;0.06;33.63;;;;;18.70;1.00;;;;;;2285063;60;1992;-85
2022/06/08 03:04:41;601204.00;2.00;1036.30;9495.00;0.03;17.07;;;;;18.80;1.00;;;;;;2285057;60;1102;-85
2022/06/08 03:07:14;645021.00;2.15;1112.02;35451.00;0.12;62.02;;;;;18.80;1.00;;;;;;2285041;60;1429;-86
2022/06/08 03:09:43;729357.00;2.43;1258.19;22682.00;0.08;39.91;;;;;18.50;1.00;;;;;;2285068;60;1125;-85
2022/06/08 03:12:20;623559.00;2.08;1074.92;10370.00;0.03;18.59;;;;;18.60;1.00;;;;;;2284993;60;1049;-85
2022/06/08 03:14:48;1207667.00;4.03;2104.09;132455.00;0.44;229.56;;;;;18.60;1.00;;;;;;2285019;60;1566;-85
2022/06/08 03:17:17;588687.00;1.96;1014.69;28637.00;0.10;50.22;;;;;18.40;1.00;;;;;;2284936;60;1121;-85
2022/06/08 03:19:44;709061.00;2.36;1222.95;19615.00;0.07;34.60;;;;;18.30;1.00;;;;;;2284918;60;1143;-84
2022/06/08 03:22:14;457196.00;1.52;788.16;0.00;0.00;0.62;;;;;18.20;1.00;;;;;;2284931;60;2012;-84
2022/06/08 03:24:42;443652.00;1.48;764.86;65823.00;0.22;114.54;;;;;18.10;1.00;;;;;;2285001;60;1071;-84
2022/06/08 03:27:10;905886.00;3.02;1566.46;84276.00;0.28;146.42;;;;;18.10;1.00;;;;;;2284945;60;1186;-85
2022/06/08 03:29:38;644443.00;2.15;1111.02;70947.00;0.24;123.40;;;;;18.30;1.00;;;;;;2284922;60;1045;-84
2022/06/08 03:32:06;770991.00;2.57;1330.58;30821.00;0.10;54.00;;;;;18.50;1.00;;;;;;2284830;60;1138;-83
2022/06/08 03:34:33;787205.00;2.62;1358.82;91378.00;0.30;158.69;;;;;18.20;1.00;;;;;;2284939;60;1184;-85
2022/06/08 03:37:00;453835.00;1.51;782.38;7758.00;0.03;14.06;;;;;18.30;1.00;;;;;;2284912;60;1304;-86
2022/06/08 03:39:27;461867.00;1.54;796.20;13538.00;0.05;24.08;;;;;18.30;1.00;;;;;;2284939;60;1107;-84
2022/06/08 03:41:54;701138.00;2.34;1209.21;58864.00;0.20;102.51;;;;;18.40;1.00;;;;;;2284816;60;1084;-85
2022/06/08 03:44:23;463914.00;1.55;799.72;17393.00;0.06;30.76;;;;;18.10;1.00;;;;;;2284953;60;1926;-85
2022/06/08 03:46:55;558139.00;1.86;961.99;15966.00;0.05;28.28;;;;;18.30;1.00;;;;;;2284878;60;1325;-84
2022/06/08 03:49:25;658108.00;2.19;1134.67;7801.00;0.03;14.14;;;;;18.30;1.00;;;;;;2284737;60;1095;-84
2022/06/08 03:51:57;610578.00;2.04;1052.49;0.00;0.00;0.62;;;;;17.90;1.00;;;;;;2284872;60;1783;-84
2022/06/08 03:54:30;505975.00;1.69;872.11;5149.00;0.02;9.54;;;;;17.60;1.00;;;;;;2284732;60;1072;-84
2022/06/08 03:57:03;605591.00;2.02;1043.87;19535.00;0.07;34.46;;;;;17.50;1.00;;;;;;2284686;60;1431;-85
2022/06/08 03:59:32;460622.00;1.54;794.05;0.00;0.00;0.62;;;;;17.60;1.00;;;;;;2284789;60;1246;-83
2022/06/08 04:02:00;161506.00;0.54;279.63;23805.00;0.08;41.86;;;;;17.80;1.00;;;;;;2284893;60;1077;-84
2022/06/08 04:04:28;378165.00;1.26;652.27;11188.00;0.04;20.01;;;;;18.30;1.00;;;;;;2284792;60;2001;-84
2022/06/08 04:06:55;635502.00;2.12;1095.56;78698.00;0.26;136.79;;;;;18.50;1.00;;;;;;2284575;60;1630;-85
2022/06/08 04:09:22;674364.00;2.25;1162.81;22035.00;0.07;38.79;;;;;18.60;1.00;;;;;;2284702;60;1125;-84
2022/06/08 04:11:49;555312.00;1.85;957.12;17216.00;0.06;30.45;;;;;18.80;1.00;;;;;;2284804;60;1190;-85
2022/06/08 04:14:16;584857.00;1.95;1008.08;21224.00;0.07;37.39;;;;;19.00;1.00;;;;;;2284729;60;1250;-84
2022/06/08 04:16:44;1004535.00;3.35;1740.51;47634.00;0.16;83.09;;;;;19.00;1.00;;;;;;2284722;60;1406;-85
2022/06/08 04:19:11;676239.00;2.25;1166.06;48701.00;0.16;84.94;;;;;19.20;1.00;;;;;;2284819;60;1234;-86
2022/06/08 04:21:38;747213.00;2.49;1289.21;69797.00;0.23;121.41;;;;;19.20;1.00;;;;;;2284853;60;1139;-86
2022/06/08 04:24:05;808980.00;2.70;1396.79;33215.00;0.11;58.15;;;;;19.40;1.00;;;;;;2284820;60;1997;-87
2022/06/08 04:26:32;764915.00;2.55;1320.00;17511.00;0.06;30.96;;;;;19.60;1.00;;;;;;2284669;60;1393;-85
2022/06/08 04:28:59;612427.00;2.04;1055.68;4815.00;0.02;8.97;;;;;19.50;1.00;;;;;;2284707;60;1135;-86
2022/06/08 04:31:26;442631.00;1.48;763.11;54894.00;0.18;95.65;;;;;19.70;1.00;;;;;;2284736;60;1007;-86
2022/06/08 04:33:54;524332.00;1.75;903.73;13153.00;0.04;23.41;;;;;19.80;1.00;;;;;;2284716;60;1051;-85
2022/06/08 04:36:22;732897.00;2.44;1264.33;17097.00;0.06;30.24;;;;;19.90;1.00;;;;;;2284697;60;1401;-85
2022/06/08 04:38:49;858596.00;2.86;1483.51;35392.00;0.12;61.92;;;;;20.20;1.00;;;;;;2284725;60;1130;-85
2022/06/08 04:41:16;680303.00;2.27;1173.10;40706.00;0.14;71.11;;;;;20.20;1.00;;;;;;2284781;60;939;-85
2022/06/08 04:43:43;548212.00;1.83;944.88;25411.00;0.08;44.64;;;;;20.30;1.00;;;;;;2284686;60;2000;-84
2022/06/08 04:46:15;475322.00;1.58;819.35;21945.00;0.07;38.64;;;;;20.30;1.00;;;;;;2284559;60;1454;-87
2022/06/08 04:48:42;787340.00;2.62;1359.05;160665.00;0.54;278.19;;;;;20.10;1.00;;;;;;2284577;60;1027;-85
2022/06/08 04:51:10;695406.00;2.32;1199.27;68283.00;0.23;118.79;;;;;20.10;1.00;;;;;;2284547;60;1035;-86
2022/06/08 04:53:38;634439.00;2.11;1093.72;11693.00;0.04;20.88;;;;;19.80;1.00;;;;;;2284599;60;1147;-85
2022/06/08 04:56:05;810346.00;2.70;1399.17;56702.00;0.19;98.78;;;;;19.70;1.00;;;;;;2284541;60;1380;-85
2022/06/08 04:58:32;616069.00;2.05;1061.97;41530.00;0.14;72.54;;;;;19.90;1.00;;;;;;2284598;60;1114;-85
2022/06/08 05:00:59;719964.00;2.40;1241.88;46231.00;0.15;80.67;;;;;19.90;1.00;;;;;;2284485;60;1741;-86
2022/06/08 05:03:26;564019.00;1.88;972.13;16667.00;0.06;29.50;;;;;20.30;1.00;;;;;;2284550;60;1992;-85
2022/06/08 05:05:53;553762.00;1.85;954.44;0.00;0.00;0.62;;;;;20.50;1.00;;;;;;2284513;60;1392;-87
2022/06/08 05:08:23;573385.00;1.91;988.29;0.00;0.00;0.62;;;;;20.70;1.00;;;;;;2284517;60;940;-86
2022/06/08 05:10:50;595215.00;1.98;1025.96;34500.00;0.12;60.37;;;;;20.80;1.00;;;;;;2284615;60;1028;-86
2022/06/08 05:13:18;743005.00;2.48;1281.90;39695.00;0.13;69.36;;;;;20.90;1.00;;;;;;2284522;60;1620;-86
2022/06/08 05:15:46;777102.00;2.59;1341.22;13390.00;0.04;23.82;;;;;21.10;1.00;;;;;;2284557;60;1402;-86
2022/06/08 05:18:16;515347.00;1.72;888.25;53478.00;0.18;93.20;;;;;21.10;1.00;;;;;;2284511;60;953;-87
2022/06/08 05:20:45;489113.00;1.63;843.08;57586.00;0.19;100.30;;;;;21.20;1.00;;;;;;2284633;60;1131;-86
2022/06/08 05:23:17;907734.00;3.03;1569.71;125762.00;0.42;218.02;;;;;21.60;1.00;;;;;;2284468;60;2176;-85
2022/06/08 05:25:46;732824.00;2.44;1264.21;73365.00;0.24;127.57;;;;;21.80;1.00;;;;;;2284554;60;1390;-87
2022/06/08 05:28:14;1088751.00;3.63;1890.32;222990.00;0.74;385.49;;;;;21.80;1.00;;;;;;2284543;60;1159;-87
2022/06/08 05:30:43;1071036.00;3.57;1858.70;74485.00;0.25;129.51;;;;;21.50;1.00;;;;;;2284558;60;1155;-87
2022/06/08 05:33:11;695240.00;2.32;1198.99;66549.00;0.22;115.80;;;;;21.30;1.00;;;;;;2284105;60;1380;-87
2022/06/08 05:35:39;899340.00;3.00;1554.96;47013.00;0.16;82.02;;;;;21.10;1.00;;;;;;2284426;60;1368;-85
2022/06/08 05:38:07;485372.00;1.62;836.64;40833.00;0.14;71.33;;;;;21.10;1.00;;;;;;2284472;60;1044;-86
2022/06/08 05:40:36;802776.00;2.68;1385.97;103633.00;0.35;179.84;;;;;21.00;1.00;;;;;;2284492;60;1134;-87
2022/06/08 05:43:05;889830.00;2.97;1538.27;83883.00;0.28;145.74;;;;;21.20;1.00;;;;;;2284444;60;1992;-87
2022/06/08 05:45:33;1160142.00;3.87;2018.32;27514.00;0.09;48.28;;;;;20.90;1.00;;;;;;2284446;60;1382;-88
2022/06/08 05:48:01;1109569.00;3.70;1927.54;39943.00;0.13;69.79;;;;;20.90;1.00;;;;;;2284413;60;1046;-87
2022/06/08 05:50:29;984719.00;3.28;1705.43;156342.00;0.52;270.74;;;;;21.10;1.00;;;;;;2284306;60;1728;-86
2022/06/08 05:52:57;778926.00;2.60;1344.40;82843.00;0.28;143.95;;;;;21.30;1.00;;;;;;2284307;60;1061;-86
2022/06/08 05:55:25;1125760.00;3.75;1956.55;108677.00;0.36;188.55;;;;;21.10;1.00;;;;;;2284367;60;1417;-86
2022/06/08 05:57:53;260180.00;0.87;449.46;63019.00;0.21;109.70;;;;;20.80;1.00;;;;;;2284319;60;1133;-87
2022/06/08 06:00:24;32308.00;0.11;56.58;0.00;0.00;0.62;;;;;20.90;1.00;;;;;;2284331;60;1484;-85
2022/06/08 06:02:51;70859.00;0.24;123.24;0.00;0.00;0.62;;;;;20.90;1.00;;;;;;2284206;60;1988;-86
2022/06/08 06:05:24;120081.00;0.40;208.22;0.00;0.00;0.62;;;;;20.90;1.00;;;;;;2284237;60;1375;-86
2022/06/08 06:07:51;398044.00;1.33;686.44;0.00;0.00;0.62;;;;;20.90;1.00;;;;;;2283915;60;1066;-85
2022/06/08 06:10:20;1221879.00;4.07;2129.83;110814.00;0.37;192.23;;;;;20.90;1.00;;;;;;2284027;60;1136;-86
2022/06/08 06:12:48;339033.00;1.13;585.01;0.00;0.00;0.62;;;;;21.10;1.00;;;;;;2284317;60;1606;-87
2022/06/08 06:15:16;244190.00;0.81;421.96;0.00;0.00;0.62;;;;;20.70;1.00;;;;;;2284110;60;1379;-86
2022/06/08 06:17:44;168596.00;0.56;291.85;0.00;0.00;0.62;;;;;20.50;1.00;;;;;;2284322;60;1024;-87
2022/06/08 06:20:11;83765.00;0.28;145.54;0.00;0.00;0.62;;;;;20.90;1.00;;;;;;2284318;60;908;-88
2022/06/08 06:22:38;221830.00;0.74;383.49;0.00;0.00;0.62;;;;;21.20;1.00;;;;;;2284378;60;904;-85
2022/06/08 06:25:07;71808.00;0.24;124.88;0.00;0.00;0.62;;;;;21.00;1.00;;;;;;2284316;60;2002;-86
2022/06/08 06:27:34;44108.00;0.15;77.00;0.00;0.00;0.62;;;;;21.10;1.00;;;;;;2284243;60;1166;-86
2022/06/08 06:30:01;0.00;0.00;0.62;0.00;0.00;0.62;;;;;21.10;1.00;;;;;;2284885;60;1003;-86
2022/06/08 06:32:30;64355.00;0.21;112.00;0.00;0.00;0.62;;;;;21.20;1.00;;;;;;2284923;60;1515;-86
2022/06/08 06:35:00;35283.00;0.12;61.73;0.00;0.00;0.62;;;;;21.30;1.00;;;;;;2284949;60;1277;-88
2022/06/08 06:37:29;21920.00;0.07;38.59;0.00;0.00;0.62;;;;;21.30;1.00;;;;;;2284941;60;1130;-86
2022/06/08 06:39:57;25586.00;0.09;44.94;0.00;0.00;0.62;;;;;21.10;1.00;;;;;;2284812;60;1018;-86
2022/06/08 06:42:27;48433.00;0.16;84.48;0.00;0.00;0.62;;;;;21.30;1.00;;;;;;2284989;60;993;-86
2022/06/08 06:44:54;178329.00;0.59;308.61;0.00;0.00;0.62;;;;;21.40;1.00;;;;;;2284591;60;1997;-84
2022/06/08 06:47:21;672449.00;2.24;1159.49;0.00;0.00;0.62;;;;;21.70;1.00;;;;;;2284910;60;1247;-87
2022/06/08 06:49:49;424383.00;1.41;731.73;76509.00;0.26;133.01;;;;;21.80;1.00;;;;;;2282127;61;1449;-85
2022/06/08 06:52:19;375250.00;1.25;647.26;63300.00;0.21;110.18;;;;;22.00;1.00;;;;;;2280836;61;1142;-85
2022/06/08 06:54:46;356903.00;1.19;615.73;0.00;0.00;0.62;;;;;21.40;1.00;;;;;;2280796;61;1038;-85
2022/06/08 06:57:13;36085.00;0.12;63.11;0.00;0.00;0.62;;;;;21.30;1.00;;;;;;2280695;61;1437;-86
2022/06/08 06:59:40;212895.00;0.71;368.12;0.00;0.00;0.62;;;;;21.70;1.00;;;;;;2280702;61;1598;-86
2022/06/08 07:02:12;102702.00;0.34;178.24;0.00;0.00;0.62;;;;;21.90;1.00;;;;;;2280829;61;1718;-85
2022/06/08 07:04:39;310476.00;1.03;535.93;73724.00;0.25;128.20;;;;;21.70;1.00;;;;;;2280781;61;1919;-84
2022/06/08 07:07:07;384451.00;1.28;663.08;76486.00;0.25;132.97;;;;;21.80;1.00;;;;;;2280515;61;1302;-86
2022/06/08 07:09:35;181128.00;0.60;313.43;0.00;0.00;0.62;;;;;21.60;1.00;;;;;;2280786;61;1730;-87
2022/06/08 07:12:05;196324.00;0.65;339.60;0.00;0.00;0.62;;;;;21.40;1.00;;;;;;2280768;61;1799;-87
2022/06/08 07:14:33;10281.00;0.03;18.44;0.00;0.00;0.62;;;;;21.00;1.00;;;;;;2280814;61;1013;-85
2022/06/08 07:17:00;244132.00;0.81;421.86;0.00;0.00;0.62;;;;;20.80;1.00;;;;;;2280716;61;1310;-86
2022/06/08 07:19:27;379490.00;1.26;654.55;85736.00;0.29;148.94;;;;;21.30;1.00;;;;;;2280650;61;1488;-85
2022/06/08 07:21:55;202629.00;0.68;350.45;0.00;0.00;0.62;;;;;21.20;1.00;;;;;;2280802;61;1157;-87
2022/06/08 07:24:25;107268.00;0.36;186.12;0.00;0.00;0.62;;;;;21.10;1.00;;;;;;2280747;61;1988;-86
2022/06/08 07:26:53;107973.00;0.36;187.33;0.00;0.00;0.62;;;;;21.60;1.00;;;;;;2280582;61;1298;-85
2022/06/08 07:29:20;184548.00;0.62;319.32;0.00;0.00;0.62;;;;;21.60;1.00;;;;;;2280683;61;1631;-85
2022/06/08 07:31:47;271979.00;0.91;469.75;22806.00;0.08;40.13;;;;;21.80;1.00;;;;;;2280656;61;1408;-86
2022/06/08 07:34:15;228712.00;0.76;395.33;0.00;0.00;0.62;;;;;21.80;1.00;;;;;;2280579;61;1307;-87
2022/06/08 07:36:44;186431.00;0.62;322.56;38060.00;0.13;66.53;;;;;22.20;1.00;;;;;;2280368;61;1434;-86
2022/06/08 07:39:14;106672.00;0.36;185.09;0.00;0.00;0.62;;;;;22.40;1.00;;;;;;2280484;61;1065;-86
2022/06/08 07:41:42;45318.00;0.15;79.09;0.00;0.00;0.62;;;;;22.50;1.00;;;;;;2280303;61;1257;-87
2022/06/08 07:44:10;0.00;0.00;0.62;0.00;0.00;0.62;;;;;22.60;1.00;;;;;;2280665;61;1915;-87
2022/06/08 07:46:37;320971.00;1.07;553.97;73099.00;0.24;127.12;;;;;23.10;1.00;;;;;;2280695;61;1402;-87
2022/06/08 07:51:53;235108.00;0.78;406.34;16138.00;0.05;28.58;;;;;24.30;1.00;;;;;;2280586;61;700;-85
2022/06/08 07:54:22;72146.00;0.24;125.47;0.00;0.00;0.62;;;;;24.30;1.00;;;;;;2280540;61;1258;-86
2022/06/08 07:56:49;240160.00;0.80;415.03;0.00;0.00;0.62;;;;;24.80;1.00;;;;;;2280503;61;1286;-85
2022/06/08 07:59:18;415040.00;1.38;715.66;92073.00;0.31;159.89;;;;;25.90;1.00;;;;;;2280553;61;1451;-85
2022/06/08 08:01:45;152622.00;0.51;264.33;0.00;0.00;0.62;;;;;27.30;1.00;;;;;;2280716;61;1054;-87
2022/06/08 08:04:12;165762.00;0.55;286.97;0.00;0.00;0.62;;;;;28.40;1.00;;;;;;2280572;61;1911;-86
2022/06/08 08:06:38;244686.00;0.82;422.81;0.00;0.00;0.62;;;;;29.10;1.00;;;;;;2280504;61;1371;-88
2022/06/08 08:09:09;196507.00;0.66;339.91;0.00;0.00;0.62;;;;;29.20;1.00;;;;;;2280452;61;1552;-86
2022/06/08 08:11:36;183581.00;0.61;317.66;0.00;0.00;0.62;;;;;30.10;1.00;;;;;;2280495;61;1212;-85
2022/06/08 08:14:06;184046.00;0.61;318.46;0.00;0.00;0.62;;;;;30.90;1.00;;;;;;2280456;61;988;-86
2022/06/08 08:16:34;340063.00;1.13;586.78;48016.00;0.16;83.75;;;;;31.10;1.00;;;;;;2280332;61;1273;-86
2022/06/08 08:19:02;338829.00;1.13;584.66;89775.00;0.30;155.92;;;;;31.20;1.00;;;;;;2280373;61;1620;-85
2022/06/08 08:21:29;239910.00;0.80;414.60;38823.00;0.13;67.85;;;;;31.30;1.00;;;;;;2280332;61;1602;-86
2022/06/08 08:23:55;283755.00;0.95;489.99;0.00;0.00;0.62;;;;;31.40;1.00;;;;;;2280581;61;1990;-86
2022/06/08 08:26:23;590462.00;1.97;1017.75;0.00;0.00;0.62;;;;;32.20;1.00;;;;;;2280637;61;1393;-87
2022/06/08 08:28:50;320463.00;1.07;553.09;0.00;0.00;0.62;;;;;31.70;1.00;;;;;;2280523;61;1069;-87
2022/06/08 08:31:17;358972.00;1.20;619.28;32009.00;0.11;56.06;;;;;30.70;1.00;;;;;;2280657;61;1757;-87
2022/06/08 08:33:47;396517.00;1.32;683.82;7144.00;0.02;13.00;;;;;29.80;1.00;;;;;;2280840;61;1026;-87
2022/06/08 08:36:14;321848.00;1.07;555.47;0.00;0.00;0.62;;;;;30.10;1.00;;;;;;2280689;61;1272;-87
2022/06/08 08:38:43;620810.00;2.07;1070.17;88842.00;0.30;154.31;;;;;31.20;1.00;;;;;;2280696;61;928;-87
2022/06/08 08:43:56;153063.00;0.51;265.09;0.00;0.00;0.62;;;;;31.20;1.00;;;;;;2280339;61;1994;-87
2022/06/08 08:46:37;290654.00;0.97;501.85;0.00;0.00;0.62;;;;;30.40;1.00;;;;;;2280601;61;1280;-86
2022/06/08 08:49:19;781734.00;2.61;1349.29;5761.00;0.02;10.60;;;;;30.40;1.00;;;;;;2280302;61;1188;-86
2022/06/08 08:51:57;557129.00;1.86;960.25;0.00;0.00;0.62;;;;;30.40;1.00;;;;;;2280161;61;1529;-85
2022/06/08 08:54:29;916170.00;3.05;1584.54;144969.00;0.48;251.14;;;;;30.00;1.00;;;;;;2280501;61;1123;-86
2022/06/08 08:57:16;840170.00;2.80;1451.27;44189.00;0.15;77.14;;;;;29.10;1.00;;;;;;2280235;61;1423;-85
2022/06/08 08:59:45;566964.00;1.89;977.21;0.00;0.00;0.62;;;;;28.50;1.00;;;;;;2280547;61;1213;-88
2022/06/08 09:03:14;507603.00;1.69;874.91;30061.00;0.10;52.69;;;;;28.10;1.00;;;;;;2280504;61;1067;-86
2022/06/08 09:05:15;79406.00;0.26;138.01;0.00;0.00;0.62;;;;;28.30;1.00;;;;;;2280273;61;1996;-86
2022/06/08 09:07:44;178609.00;0.60;309.09;15420.00;0.05;27.34;;;;;28.80;1.00;;;;;;2280513;61;1143;-86
2022/06/08 09:10:17;1344396.00;4.48;2353.59;85582.00;0.29;148.68;;;;;29.40;1.00;;;;;;2280369;61;1226;-87
2022/06/08 09:12:44;1330841.00;4.44;2328.66;96113.00;0.32;166.86;;;;;30.40;1.00;;;;;;2280299;61;1442;-87
2022/06/08 09:15:14;312340.00;1.04;539.13;30093.00;0.10;52.74;;;;;30.80;1.00;;;;;;2280359;61;1292;-87
2022/06/08 09:17:52;132464.00;0.44;229.58;0.00;0.00;0.62;;;;;30.80;1.00;;;;;;2280352;61;897;-88
2022/06/08 09:20:29;108567.00;0.36;188.36;0.00;0.00;0.62;;;;;31.30;1.00;;;;;;2280469;61;1441;-88
2022/06/08 09:22:59;1677016.00;5.59;2980.85;112586.00;0.38;195.29;;;;;30.80;1.00;;;;;;2280418;61;1275;-87
2022/06/08 09:25:29;740817.00;2.47;1278.09;110063.00;0.37;190.94;;;;;30.60;1.00;;;;;;2280352;61;1911;-88
2022/06/08 09:28:00;383613.00;1.28;661.64;120316.00;0.40;208.63;;;;;30.20;1.00;;;;;;2280372;61;1213;-89
2022/06/08 09:30:31;161223.00;0.54;279.15;0.00;0.00;0.62;;;;;30.40;1.00;;;;;;2280411;61;993;-88
2022/06/08 09:33:01;154383.00;0.51;267.36;0.00;0.00;0.62;;;;;30.20;1.00;;;;;;2280334;61;952;-88
2022/06/08 09:35:35;144296.00;0.48;249.98;0.00;0.00;0.62;;;;;29.70;1.00;;;;;;2280331;61;1780;-88
2022/06/08 09:38:08;310810.00;1.04;536.50;52366.00;0.17;91.28;;;;;29.40;1.00;;;;;;2285947;40;3574;-87
2022/06/08 09:40:45;148249.00;0.49;256.79;0.00;0.00;0.62;;;;;29.40;1.00;;;;;;2284500;60;1823;-87
2022/06/08 09:43:32;204576.00;0.68;353.80;0.00;0.00;0.62;;;;;29.10;1.00;;;;;;2284326;60;999;-89
2022/06/08 09:46:07;358544.00;1.20;618.55;56185.00;0.19;97.88;;;;;28.90;1.00;;;;;;2284370;60;1940;-85
2022/06/08 09:52:13;45121.00;0.15;78.75;0.00;0.00;0.62;;;;;29.10;1.00;;;;;;2277243;60;1582;-85
2022/06/08 09:54:58;1115512.00;3.72;1938.19;103329.00;0.34;179.32;;;;;29.00;1.00;;;;;;2284256;60;1909;-88
2022/06/08 09:57:41;272001.00;0.91;469.78;0.00;0.00;0.62;;;;;29.20;1.00;;;;;;2284539;60;1055;-86
2022/06/08 10:00:21;259559.00;0.87;448.39;30432.00;0.10;53.33;;;;;28.90;1.00;;;;;;2284546;60;2006;-86